sensor_id;sensor_type;location;lat;lon;timestamp;pressure;altitude;pressure_sealevel;temperature;humidity
39197;BME280;42889;51.112;13.772;2022-10-16T00:01:12;98898.34;;;15.00;100.00
39197;BME280;42889;51.112;13.772;2022-10-16T00:03:40;98902.00;;;14.92;100.00
39197;BME280;42889;51.112;13.772;2022-10-16T00:06:08;98910.44;;;14.83;100.00
39197;BME280;42889;51.112;13.772;2022-10-16T00:08:35;98902.13;;;14.84;100.00
39197;BME280;42889;51.112;13.772;2022-10-16T00:11:04;98901.47;;;14.82;100.00
39197;BME280;42889;51.112;13.772;2022-10-16T00:13:32;98910.56;;;14.74;100.00
39197;BME280;42889;51.112;13.772;2022-10-16T00:16:00;98913.97;;;14.83;100.00
39197;BME280;42889;51.112;13.772;2022-10-16T00:18:28;98913.34;;;14.81;100.00
39197;BME280;42889;51.112;13.772;2022-10-16T00:20:55;98918.69;;;14.74;100.00
39197;BME280;42889;51.112;13.772;2022-10-16T00:23:22;98922.38;;;14.88;100.00
39197;BME280;42889;51.112;13.772;2022-10-16T00:25:56;98923.47;;;14.72;100.00
39197;BME280;42889;51.112;13.772;2022-10-16T00:28:24;98931.22;;;14.75;100.00
39197;BME280;42889;51.112;13.772;2022-10-16T00:30:51;98921.00;;;14.77;100.00
39197;BME280;42889;51.112;13.772;2022-10-16T00:33:18;98921.88;;;14.78;100.00
39197;BME280;42889;51.112;13.772;2022-10-16T00:35:44;98922.31;;;14.82;100.00
39197;BME280;42889;51.112;13.772;2022-10-16T00:38:11;98922.97;;;14.84;100.00
39197;BME280;42889;51.112;13.772;2022-10-16T00:40:38;98919.72;;;14.73;100.00
39197;BME280;42889;51.112;13.772;2022-10-16T00:46:10;98934.56;;;14.77;100.00
39197;BME280;42889;51.112;13.772;2022-10-16T00:48:40;98928.03;;;14.72;100.00
39197;BME280;42889;51.112;13.772;2022-10-16T00:51:07;98925.66;;;14.62;100.00
39197;BME280;42889;51.112;13.772;2022-10-16T00:53:34;98932.25;;;14.60;100.00
39197;BME280;42889;51.112;13.772;2022-10-16T00:56:02;98937.41;;;14.55;100.00
39197;BME280;42889;51.112;13.772;2022-10-16T00:58:29;98937.31;;;14.48;100.00
39197;BME280;42889;51.112;13.772;2022-10-16T01:00:56;98941.97;;;14.69;100.00
39197;BME280;42889;51.112;13.772;2022-10-16T01:03:32;98944.09;;;14.73;100.00
39197;BME280;42889;51.112;13.772;2022-10-16T01:06:22;98933.41;;;14.87;100.00
39197;BME280;42889;51.112;13.772;2022-10-16T01:11:38;98943.94;;;14.96;100.00
39197;BME280;42889;51.112;13.772;2022-10-16T01:14:34;98940.78;;;14.93;100.00
39197;BME280;42889;51.112;13.772;2022-10-16T01:17:12;98932.72;;;14.99;100.00
39197;BME280;42889;51.112;13.772;2022-10-16T01:20:03;98940.09;;;15.06;100.00
39197;BME280;42889;51.112;13.772;2022-10-16T01:22:56;98945.53;;;15.06;100.00
39197;BME280;42889;51.112;13.772;2022-10-16T01:28:13;98946.00;;;15.16;100.00
39197;BME280;42889;51.112;13.772;2022-10-16T01:30:43;98947.47;;;15.12;100.00
39197;BME280;42889;51.112;13.772;2022-10-16T01:33:20;98951.78;;;15.27;100.00
39197;BME280;42889;51.112;13.772;2022-10-16T01:35:52;98959.78;;;15.36;100.00
39197;BME280;42889;51.112;13.772;2022-10-16T01:38:33;98960.28;;;15.24;100.00
39197;BME280;42889;51.112;13.772;2022-10-16T01:41:10;98967.38;;;15.25;100.00
39197;BME280;42889;51.112;13.772;2022-10-16T01:43:45;98960.34;;;15.31;100.00
39197;BME280;42889;51.112;13.772;2022-10-16T01:46:17;98961.09;;;15.40;100.00
39197;BME280;42889;51.112;13.772;2022-10-16T01:48:46;98951.69;;;15.21;100.00
39197;BME280;42889;51.112;13.772;2022-10-16T01:51:15;98955.41;;;15.35;100.00
39197;BME280;42889;51.112;13.772;2022-10-16T01:53:46;98952.47;;;15.36;100.00
39197;BME280;42889;51.112;13.772;2022-10-16T01:56:15;98952.69;;;15.35;100.00
39197;BME280;42889;51.112;13.772;2022-10-16T01:59:11;98946.84;;;15.38;100.00
39197;BME280;42889;51.112;13.772;2022-10-16T02:01:42;98949.91;;;15.28;100.00
39197;BME280;42889;51.112;13.772;2022-10-16T02:04:36;98944.03;;;15.24;100.00
39197;BME280;42889;51.112;13.772;2022-10-16T02:07:04;98952.03;;;15.33;100.00
39197;BME280;42889;51.112;13.772;2022-10-16T02:09:33;98963.66;;;15.48;100.00
39197;BME280;42889;51.112;13.772;2022-10-16T02:12:05;98965.81;;;15.59;99.33
39197;BME280;42889;51.112;13.772;2022-10-16T02:14:33;98971.84;;;15.54;99.42
39197;BME280;42889;51.112;13.772;2022-10-16T02:16:59;98964.78;;;15.60;99.34
39197;BME280;42889;51.112;13.772;2022-10-16T02:19:26;98967.50;;;15.60;98.96
39197;BME280;42889;51.112;13.772;2022-10-16T02:21:58;98972.09;;;15.60;98.91
39197;BME280;42889;51.112;13.772;2022-10-16T02:24:43;98981.19;;;15.67;98.47
39197;BME280;42889;51.112;13.772;2022-10-16T02:30:13;98965.56;;;15.54;99.04
39197;BME280;42889;51.112;13.772;2022-10-16T02:32:43;98973.72;;;15.54;99.24
39197;BME280;42889;51.112;13.772;2022-10-16T02:35:13;98972.59;;;15.63;98.84
39197;BME280;42889;51.112;13.772;2022-10-16T02:37:40;98964.16;;;15.58;99.10
39197;BME280;42889;51.112;13.772;2022-10-16T02:40:08;98966.03;;;15.58;99.69
39197;BME280;42889;51.112;13.772;2022-10-16T02:42:37;98975.78;;;15.52;100.00
39197;BME280;42889;51.112;13.772;2022-10-16T02:45:05;98969.00;;;15.41;100.00
39197;BME280;42889;51.112;13.772;2022-10-16T02:47:33;98978.66;;;15.44;100.00
39197;BME280;42889;51.112;13.772;2022-10-16T02:49:59;98980.31;;;15.45;100.00
39197;BME280;42889;51.112;13.772;2022-10-16T02:52:26;98968.53;;;15.38;100.00
39197;BME280;42889;51.112;13.772;2022-10-16T02:54:53;98968.13;;;15.34;100.00
39197;BME280;42889;51.112;13.772;2022-10-16T02:57:20;98958.94;;;15.35;100.00
39197;BME280;42889;51.112;13.772;2022-10-16T02:59:47;98963.84;;;15.25;100.00
39197;BME280;42889;51.112;13.772;2022-10-16T03:02:14;98968.63;;;15.23;100.00
39197;BME280;42889;51.112;13.772;2022-10-16T03:04:40;98962.38;;;15.22;100.00
39197;BME280;42889;51.112;13.772;2022-10-16T03:07:07;98964.81;;;15.17;100.00
39197;BME280;42889;51.112;13.772;2022-10-16T03:09:34;98956.34;;;15.06;100.00
39197;BME280;42889;51.112;13.772;2022-10-16T03:12:00;98956.34;;;15.06;100.00
39197;BME280;42889;51.112;13.772;2022-10-16T03:14:27;98956.16;;;15.07;100.00
39197;BME280;42889;51.112;13.772;2022-10-16T03:16:58;98963.19;;;15.01;100.00
39197;BME280;42889;51.112;13.772;2022-10-16T03:19:25;98969.13;;;15.12;100.00
39197;BME280;42889;51.112;13.772;2022-10-16T03:21:51;98969.81;;;14.99;100.00
39197;BME280;42889;51.112;13.772;2022-10-16T03:24:18;98969.47;;;14.87;100.00
39197;BME280;42889;51.112;13.772;2022-10-16T03:26:45;98970.50;;;14.86;100.00
39197;BME280;42889;51.112;13.772;2022-10-16T03:29:11;98969.53;;;14.94;100.00
39197;BME280;42889;51.112;13.772;2022-10-16T03:31:38;98974.19;;;14.64;100.00
39197;BME280;42889;51.112;13.772;2022-10-16T03:34:05;98982.75;;;14.82;100.00
39197;BME280;42889;51.112;13.772;2022-10-16T03:36:31;98977.44;;;14.74;100.00
39197;BME280;42889;51.112;13.772;2022-10-16T03:38:58;98969.41;;;14.66;100.00
39197;BME280;42889;51.112;13.772;2022-10-16T03:41:24;98977.66;;;14.72;100.00
39197;BME280;42889;51.112;13.772;2022-10-16T03:43:51;98969.06;;;14.69;100.00
39197;BME280;42889;51.112;13.772;2022-10-16T03:46:18;98970.25;;;14.66;100.00
39197;BME280;42889;51.112;13.772;2022-10-16T03:48:45;98978.09;;;14.76;100.00
39197;BME280;42889;51.112;13.772;2022-10-16T03:51:11;98978.63;;;14.86;100.00
39197;BME280;42889;51.112;13.772;2022-10-16T03:53:38;98988.91;;;14.91;100.00
39197;BME280;42889;51.112;13.772;2022-10-16T03:56:05;98991.53;;;14.84;100.00
39197;BME280;42889;51.112;13.772;2022-10-16T03:58:32;98996.84;;;14.92;100.00
39197;BME280;42889;51.112;13.772;2022-10-16T04:00:59;98991.41;;;14.92;100.00
39197;BME280;42889;51.112;13.772;2022-10-16T04:03:25;99001.16;;;14.72;100.00
39197;BME280;42889;51.112;13.772;2022-10-16T04:05:52;98997.63;;;14.71;100.00
39197;BME280;42889;51.112;13.772;2022-10-16T04:08:18;98997.72;;;14.63;100.00
39197;BME280;42889;51.112;13.772;2022-10-16T04:10:45;98991.66;;;14.61;100.00
39197;BME280;42889;51.112;13.772;2022-10-16T04:13:12;98992.41;;;14.40;100.00
39197;BME280;42889;51.112;13.772;2022-10-16T04:15:39;99004.34;;;14.31;100.00
39197;BME280;42889;51.112;13.772;2022-10-16T04:18:06;98998.81;;;14.24;100.00
39197;BME280;42889;51.112;13.772;2022-10-16T04:20:33;99001.81;;;14.30;100.00
39197;BME280;42889;51.112;13.772;2022-10-16T04:23:00;99005.44;;;14.22;100.00
39197;BME280;42889;51.112;13.772;2022-10-16T04:25:27;99011.41;;;14.32;100.00
39197;BME280;42889;51.112;13.772;2022-10-16T04:27:54;99006.69;;;14.34;100.00
39197;BME280;42889;51.112;13.772;2022-10-16T04:30:21;99008.19;;;14.52;100.00
39197;BME280;42889;51.112;13.772;2022-10-16T04:32:49;99004.75;;;14.58;100.00
39197;BME280;42889;51.112;13.772;2022-10-16T04:35:17;99004.53;;;14.74;100.00
39197;BME280;42889;51.112;13.772;2022-10-16T04:37:44;99006.41;;;14.73;100.00
39197;BME280;42889;51.112;13.772;2022-10-16T04:40:11;99024.41;;;14.81;100.00
39197;BME280;42889;51.112;13.772;2022-10-16T04:42:38;99030.03;;;14.80;100.00
39197;BME280;42889;51.112;13.772;2022-10-16T04:45:05;99024.34;;;14.74;100.00
39197;BME280;42889;51.112;13.772;2022-10-16T04:47:32;99032.47;;;14.74;100.00
39197;BME280;42889;51.112;13.772;2022-10-16T04:49:59;99014.63;;;14.65;100.00
39197;BME280;42889;51.112;13.772;2022-10-16T04:52:27;99026.75;;;14.55;100.00
39197;BME280;42889;51.112;13.772;2022-10-16T04:54:54;99010.25;;;14.64;100.00
39197;BME280;42889;51.112;13.772;2022-10-16T04:57:22;99014.44;;;14.52;100.00
39197;BME280;42889;51.112;13.772;2022-10-16T04:59:49;99006.97;;;14.54;100.00
39197;BME280;42889;51.112;13.772;2022-10-16T05:02:16;99022.09;;;14.63;100.00
39197;BME280;42889;51.112;13.772;2022-10-16T05:04:43;99013.31;;;14.61;100.00
39197;BME280;42889;51.112;13.772;2022-10-16T05:07:09;99022.94;;;14.64;100.00
39197;BME280;42889;51.112;13.772;2022-10-16T05:09:36;99023.22;;;14.54;100.00
39197;BME280;42889;51.112;13.772;2022-10-16T05:12:03;99027.03;;;14.45;100.00
39197;BME280;42889;51.112;13.772;2022-10-16T05:14:29;99025.72;;;14.56;100.00
39197;BME280;42889;51.112;13.772;2022-10-16T05:16:56;99012.25;;;14.33;100.00
39197;BME280;42889;51.112;13.772;2022-10-16T05:19:23;99016.88;;;14.47;100.00
39197;BME280;42889;51.112;13.772;2022-10-16T05:21:54;99032.75;;;14.65;100.00
39197;BME280;42889;51.112;13.772;2022-10-16T05:24:21;99029.13;;;14.72;100.00
39197;BME280;42889;51.112;13.772;2022-10-16T05:26:48;99033.22;;;14.68;100.00
39197;BME280;42889;51.112;13.772;2022-10-16T05:29:14;99037.44;;;14.56;100.00
39197;BME280;42889;51.112;13.772;2022-10-16T05:31:41;99043.84;;;14.55;100.00
39197;BME280;42889;51.112;13.772;2022-10-16T05:34:08;99042.19;;;14.54;100.00
39197;BME280;42889;51.112;13.772;2022-10-16T05:36:35;99043.22;;;14.53;100.00
39197;BME280;42889;51.112;13.772;2022-10-16T05:39:02;99035.63;;;14.48;100.00
39197;BME280;42889;51.112;13.772;2022-10-16T05:41:29;99025.94;;;14.54;100.00
39197;BME280;42889;51.112;13.772;2022-10-16T05:43:55;99024.44;;;14.52;100.00
39197;BME280;42889;51.112;13.772;2022-10-16T05:46:22;99041.56;;;14.14;100.00
39197;BME280;42889;51.112;13.772;2022-10-16T05:48:52;99041.19;;;14.17;100.00
39197;BME280;42889;51.112;13.772;2022-10-16T05:51:18;99047.16;;;14.28;100.00
39197;BME280;42889;51.112;13.772;2022-10-16T05:53:45;99052.97;;;14.24;100.00
39197;BME280;42889;51.112;13.772;2022-10-16T05:56:12;99068.53;;;14.22;100.00
39197;BME280;42889;51.112;13.772;2022-10-16T05:58:39;99069.94;;;14.33;100.00
39197;BME280;42889;51.112;13.772;2022-10-16T06:01:13;99063.50;;;14.19;100.00
39197;BME280;42889;51.112;13.772;2022-10-16T06:03:40;99057.53;;;14.24;100.00
39197;BME280;42889;51.112;13.772;2022-10-16T06:08:38;99062.28;;;14.22;100.00
39197;BME280;42889;51.112;13.772;2022-10-16T06:11:08;99062.28;;;14.22;100.00
39197;BME280;42889;51.112;13.772;2022-10-16T06:13:36;99070.22;;;14.23;100.00
39197;BME280;42889;51.112;13.772;2022-10-16T06:16:03;99072.91;;;14.09;100.00
39197;BME280;42889;51.112;13.772;2022-10-16T06:18:30;99073.09;;;14.07;100.00
39197;BME280;42889;51.112;13.772;2022-10-16T06:20:57;99073.13;;;13.99;100.00
39197;BME280;42889;51.112;13.772;2022-10-16T06:23:28;99072.78;;;14.02;100.00
39197;BME280;42889;51.112;13.772;2022-10-16T06:26:04;99079.72;;;14.19;100.00
39197;BME280;42889;51.112;13.772;2022-10-16T06:28:30;99093.75;;;14.38;100.00
39197;BME280;42889;51.112;13.772;2022-10-16T06:31:01;99101.28;;;14.65;100.00
39197;BME280;42889;51.112;13.772;2022-10-16T06:33:34;99110.84;;;14.91;100.00
39197;BME280;42889;51.112;13.772;2022-10-16T06:36:06;99102.44;;;15.00;100.00
39197;BME280;42889;51.112;13.772;2022-10-16T06:38:35;99098.59;;;14.95;100.00
39197;BME280;42889;51.112;13.772;2022-10-16T06:41:02;99119.81;;;15.06;100.00
39197;BME280;42889;51.112;13.772;2022-10-16T06:43:29;99115.09;;;15.15;100.00
39197;BME280;42889;51.112;13.772;2022-10-16T06:46:02;99123.59;;;15.26;100.00
39197;BME280;42889;51.112;13.772;2022-10-16T06:48:30;99125.53;;;15.47;100.00
39197;BME280;42889;51.112;13.772;2022-10-16T06:50:59;99122.50;;;15.57;100.00
39197;BME280;42889;51.112;13.772;2022-10-16T06:53:28;99123.78;;;15.76;100.00
39197;BME280;42889;51.112;13.772;2022-10-16T06:56:16;99133.81;;;15.97;100.00
39197;BME280;42889;51.112;13.772;2022-10-16T06:58:44;99138.97;;;16.13;100.00
39197;BME280;42889;51.112;13.772;2022-10-16T07:01:11;99146.03;;;16.07;100.00
39197;BME280;42889;51.112;13.772;2022-10-16T07:03:40;99149.00;;;16.13;100.00
39197;BME280;42889;51.112;13.772;2022-10-16T07:06:09;99150.63;;;16.07;99.30
39197;BME280;42889;51.112;13.772;2022-10-16T07:08:38;99156.06;;;16.07;100.00
39197;BME280;42889;51.112;13.772;2022-10-16T07:11:07;99163.66;;;15.97;100.00
39197;BME280;42889;51.112;13.772;2022-10-16T07:13:35;99161.09;;;16.10;99.55
39197;BME280;42889;51.112;13.772;2022-10-16T07:16:10;99154.81;;;16.10;99.66
39197;BME280;42889;51.112;13.772;2022-10-16T07:18:37;99164.50;;;16.19;99.56
39197;BME280;42889;51.112;13.772;2022-10-16T07:23:32;99172.59;;;16.33;97.65
39197;BME280;42889;51.112;13.772;2022-10-16T07:25:58;99174.06;;;16.36;98.00
39197;BME280;42889;51.112;13.772;2022-10-16T07:28:25;99188.56;;;16.43;98.23
39197;BME280;42889;51.112;13.772;2022-10-16T07:30:52;99196.50;;;16.45;97.58
39197;BME280;42889;51.112;13.772;2022-10-16T07:33:19;99200.44;;;16.42;98.29
39197;BME280;42889;51.112;13.772;2022-10-16T07:35:53;99206.75;;;16.43;97.32
39197;BME280;42889;51.112;13.772;2022-10-16T07:38:21;99206.13;;;16.47;97.13
39197;BME280;42889;51.112;13.772;2022-10-16T07:40:48;99216.31;;;16.60;95.63
39197;BME280;42889;51.112;13.772;2022-10-16T07:43:15;99219.69;;;16.69;95.28
39197;BME280;42889;51.112;13.772;2022-10-16T07:45:48;99216.03;;;16.55;95.14
39197;BME280;42889;51.112;13.772;2022-10-16T07:48:17;99217.78;;;16.63;95.57
39197;BME280;42889;51.112;13.772;2022-10-16T07:50:44;99217.81;;;16.69;95.50
39197;BME280;42889;51.112;13.772;2022-10-16T07:53:11;99226.25;;;16.74;95.43
39197;BME280;42889;51.112;13.772;2022-10-16T07:55:38;99226.47;;;16.73;94.69
39197;BME280;42889;51.112;13.772;2022-10-16T07:58:06;99229.19;;;16.73;95.14
39197;BME280;42889;51.112;13.772;2022-10-16T08:00:33;99229.69;;;16.83;94.08
39197;BME280;42889;51.112;13.772;2022-10-16T08:03:00;99229.22;;;16.79;94.24
39197;BME280;42889;51.112;13.772;2022-10-16T08:05:28;99229.81;;;16.75;94.48
39197;BME280;42889;51.112;13.772;2022-10-16T08:07:55;99217.19;;;16.89;93.33
39197;BME280;42889;51.112;13.772;2022-10-16T08:10:25;99209.28;;;16.94;92.87
39197;BME280;42889;51.112;13.772;2022-10-16T08:12:52;99204.94;;;16.99;96.08
39197;BME280;42889;51.112;13.772;2022-10-16T08:15:20;99201.63;;;17.04;92.43
39197;BME280;42889;51.112;13.772;2022-10-16T08:17:57;99208.56;;;17.13;90.44
39197;BME280;42889;51.112;13.772;2022-10-16T08:20:26;99216.41;;;17.29;88.89
39197;BME280;42889;51.112;13.772;2022-10-16T08:22:53;99221.81;;;17.23;90.27
39197;BME280;42889;51.112;13.772;2022-10-16T08:25:23;99223.06;;;17.20;90.12
39197;BME280;42889;51.112;13.772;2022-10-16T08:27:50;99215.75;;;17.21;89.37
39197;BME280;42889;51.112;13.772;2022-10-16T08:30:19;99218.63;;;17.19;89.97
39197;BME280;42889;51.112;13.772;2022-10-16T08:32:46;99219.94;;;17.23;89.91
39197;BME280;42889;51.112;13.772;2022-10-16T08:35:14;99218.53;;;17.34;88.86
39197;BME280;42889;51.112;13.772;2022-10-16T08:37:41;99228.06;;;17.58;87.67
39197;BME280;42889;51.112;13.772;2022-10-16T08:40:29;99232.75;;;17.71;85.69
39197;BME280;42889;51.112;13.772;2022-10-16T08:43:30;99228.69;;;18.01;84.78
39197;BME280;42889;51.112;13.772;2022-10-16T08:46:19;99240.03;;;18.05;84.56
39197;BME280;42889;51.112;13.772;2022-10-16T08:48:51;99239.66;;;18.14;84.97
39197;BME280;42889;51.112;13.772;2022-10-16T08:51:31;99239.22;;;18.17;83.32
39197;BME280;42889;51.112;13.772;2022-10-16T08:56:50;99223.84;;;18.91;80.65
39197;BME280;42889;51.112;13.772;2022-10-16T08:59:18;99213.69;;;19.31;77.19
39197;BME280;42889;51.112;13.772;2022-10-16T09:01:47;99210.03;;;19.70;75.39
39197;BME280;42889;51.112;13.772;2022-10-16T09:05:05;99210.66;;;20.81;69.43
39197;BME280;42889;51.112;13.772;2022-10-16T09:07:17;99221.56;;;22.04;63.53
39197;BME280;42889;51.112;13.772;2022-10-16T09:09:58;99211.88;;;23.03;59.92
39197;BME280;42889;51.112;13.772;2022-10-16T09:12:37;99212.31;;;23.12;59.56
39197;BME280;42889;51.112;13.772;2022-10-16T09:20:45;99207.72;;;23.88;58.99
39197;BME280;42889;51.112;13.772;2022-10-16T09:23:36;63530.91;;;-146.37;100.00
39197;BME280;42889;51.112;13.772;2022-10-16T09:26:05;63530.91;;;-146.37;100.00
39197;BME280;42889;51.112;13.772;2022-10-16T09:28:32;63530.91;;;-146.37;100.00
39197;BME280;42889;51.112;13.772;2022-10-16T09:30:59;63530.91;;;-146.37;100.00
39197;BME280;42889;51.112;13.772;2022-10-16T09:33:30;63530.91;;;-146.37;100.00
39197;BME280;42889;51.112;13.772;2022-10-16T09:35:59;63530.91;;;-146.37;100.00
39197;BME280;42889;51.112;13.772;2022-10-16T09:38:33;63530.91;;;-146.37;100.00
39197;BME280;42889;51.112;13.772;2022-10-16T09:43:46;63530.91;;;-146.37;100.00
39197;BME280;42889;51.112;13.772;2022-10-16T09:46:31;63530.91;;;-146.37;100.00
39197;BME280;42889;51.112;13.772;2022-10-16T09:51:45;63530.91;;;-146.37;100.00
39197;BME280;42889;51.112;13.772;2022-10-16T09:54:19;63530.91;;;-146.37;100.00
39197;BME280;42889;51.112;13.772;2022-10-16T09:56:47;99207.72;;;23.88;58.99
39197;BME280;42889;51.112;13.772;2022-10-16T09:59:20;99252.75;;;22.03;64.38
39197;BME280;42889;51.112;13.772;2022-10-16T10:01:50;99265.78;;;22.56;64.96
39197;BME280;42889;51.112;13.772;2022-10-16T10:04:19;99257.56;;;23.09;64.59
39197;BME280;42889;51.112;13.772;2022-10-16T10:06:49;99263.44;;;23.13;60.56
39197;BME280;42889;51.112;13.772;2022-10-16T10:09:23;99264.34;;;22.95;62.26
39197;BME280;42889;51.112;13.772;2022-10-16T10:11:53;99257.69;;;22.91;63.12
39197;BME280;42889;51.112;13.772;2022-10-16T10:22:38;99273.31;;;23.61;58.69
39197;BME280;42889;51.112;13.772;2022-10-16T10:25:14;99281.00;;;23.71;58.49
39197;BME280;42889;51.112;13.772;2022-10-16T10:28:05;99281.88;;;24.52;59.26
39197;BME280;42889;51.112;13.772;2022-10-16T10:36:28;99285.53;;;24.86;53.31
39197;BME280;42889;51.112;13.772;2022-10-16T10:39:03;99289.31;;;24.51;57.13
39197;BME280;42889;51.112;13.772;2022-10-16T10:46:56;99280.94;;;23.12;59.35
39197;BME280;42889;51.112;13.772;2022-10-16T10:55:21;99300.72;;;22.30;61.63
39197;BME280;42889;51.112;13.772;2022-10-16T11:06:39;99295.94;;;21.71;65.38
39197;BME280;42889;51.112;13.772;2022-10-16T11:11:43;99288.16;;;21.68;66.01
39197;BME280;42889;51.112;13.772;2022-10-16T11:19:48;99296.91;;;21.95;64.04
39197;BME280;42889;51.112;13.772;2022-10-16T11:24:55;99278.47;;;21.47;64.51
39197;BME280;42889;51.112;13.772;2022-10-16T11:27:40;99296.31;;;21.31;65.05
39197;BME280;42889;51.112;13.772;2022-10-16T11:30:26;99289.97;;;21.74;63.35
39197;BME280;42889;51.112;13.772;2022-10-16T11:33:03;99289.63;;;21.70;63.82
39197;BME280;42889;51.112;13.772;2022-10-16T11:35:44;99292.25;;;21.58;64.79
39197;BME280;42889;51.112;13.772;2022-10-16T11:38:25;99297.22;;;21.68;64.75
39197;BME280;42889;51.112;13.772;2022-10-16T11:41:03;99300.63;;;21.64;64.36
39197;BME280;42889;51.112;13.772;2022-10-16T11:43:45;99302.94;;;21.67;64.48
39197;BME280;42889;51.112;13.772;2022-10-16T11:46:20;99300.94;;;21.74;62.72
39197;BME280;42889;51.112;13.772;2022-10-16T11:48:57;99297.00;;;21.88;63.58
39197;BME280;42889;51.112;13.772;2022-10-16T11:51:38;99311.22;;;21.97;62.09
39197;BME280;42889;51.112;13.772;2022-10-16T11:54:45;99300.66;;;22.37;60.02
39197;BME280;42889;51.112;13.772;2022-10-16T11:57:30;99321.09;;;22.83;58.66
39197;BME280;42889;51.112;13.772;2022-10-16T12:08:10;99314.34;;;24.26;54.73
39197;BME280;42889;51.112;13.772;2022-10-16T12:10:39;99312.59;;;24.08;55.85
39197;BME280;42889;51.112;13.772;2022-10-16T12:13:38;99309.41;;;23.53;57.75
39197;BME280;42889;51.112;13.772;2022-10-16T12:18:44;99318.25;;;22.59;59.24
39197;BME280;42889;51.112;13.772;2022-10-16T12:21:13;99316.81;;;22.27;60.37
39197;BME280;42889;51.112;13.772;2022-10-16T12:23:53;99315.72;;;22.09;61.03
39197;BME280;42889;51.112;13.772;2022-10-16T12:26:28;99313.06;;;22.21;61.16
39197;BME280;42889;51.112;13.772;2022-10-16T12:29:09;99323.56;;;22.06;61.93
39197;BME280;42889;51.112;13.772;2022-10-16T12:31:46;99316.00;;;22.01;62.63
39197;BME280;42889;51.112;13.772;2022-10-16T12:34:41;99324.25;;;21.83;61.78
39197;BME280;42889;51.112;13.772;2022-10-16T12:37:11;99320.03;;;21.62;62.86
39197;BME280;42889;51.112;13.772;2022-10-16T12:39:39;99326.56;;;21.61;63.57
39197;BME280;42889;51.112;13.772;2022-10-16T12:42:22;99321.50;;;21.83;63.73
39197;BME280;42889;51.112;13.772;2022-10-16T12:44:50;99331.09;;;21.92;63.60
39197;BME280;42889;51.112;13.772;2022-10-16T12:47:22;99331.09;;;21.92;62.89
39197;BME280;42889;51.112;13.772;2022-10-16T12:49:54;99335.94;;;22.15;62.73
39197;BME280;42889;51.112;13.772;2022-10-16T12:55:00;99340.00;;;22.24;62.16
39197;BME280;42889;51.112;13.772;2022-10-16T12:57:34;99345.44;;;22.31;61.25
39197;BME280;42889;51.112;13.772;2022-10-16T13:00:44;99343.53;;;22.13;61.82
39197;BME280;42889;51.112;13.772;2022-10-16T13:06:27;99347.66;;;21.79;63.47
39197;BME280;42889;51.112;13.772;2022-10-16T13:09:29;99348.91;;;21.58;64.11
39197;BME280;42889;51.112;13.772;2022-10-16T13:20:29;99353.59;;;21.26;64.76
39197;BME280;42889;51.112;13.772;2022-10-16T13:23:20;99347.06;;;21.27;64.16
39197;BME280;42889;51.112;13.772;2022-10-16T13:28:39;99346.50;;;21.18;64.68
39197;BME280;42889;51.112;13.772;2022-10-16T13:31:15;99349.66;;;21.22;64.39
39197;BME280;42889;51.112;13.772;2022-10-16T13:33:47;99354.09;;;21.16;66.93
39197;BME280;42889;51.112;13.772;2022-10-16T13:36:22;99351.81;;;21.13;66.15
39197;BME280;42889;51.112;13.772;2022-10-16T13:39:00;99350.38;;;21.11;66.10
39197;BME280;42889;51.112;13.772;2022-10-16T13:41:27;99351.25;;;21.04;66.31
39197;BME280;42889;51.112;13.772;2022-10-16T13:43:55;99356.09;;;21.02;67.19
39197;BME280;42889;51.112;13.772;2022-10-16T13:46:24;99354.72;;;20.87;67.95
39197;BME280;42889;51.112;13.772;2022-10-16T13:49:01;99345.31;;;20.76;68.12
39197;BME280;42889;51.112;13.772;2022-10-16T13:51:29;99357.38;;;20.68;68.69
39197;BME280;42889;51.112;13.772;2022-10-16T13:53:57;99355.25;;;20.70;69.27
39197;BME280;42889;51.112;13.772;2022-10-16T13:56:31;99369.31;;;20.74;68.62
39197;BME280;42889;51.112;13.772;2022-10-16T13:59:06;99359.63;;;20.78;68.59
39197;BME280;42889;51.112;13.772;2022-10-16T14:01:35;99362.38;;;20.78;69.37
39197;BME280;42889;51.112;13.772;2022-10-16T14:04:11;99369.97;;;20.69;71.29
39197;BME280;42889;51.112;13.772;2022-10-16T14:06:44;99375.66;;;20.68;73.10
39197;BME280;42889;51.112;13.772;2022-10-16T14:09:21;99376.69;;;20.73;75.55
39197;BME280;42889;51.112;13.772;2022-10-16T14:11:50;99375.19;;;20.77;73.08
39197;BME280;42889;51.112;13.772;2022-10-16T14:14:21;99374.84;;;20.67;75.06
39197;BME280;42889;51.112;13.772;2022-10-16T14:16:48;99378.81;;;20.71;73.13
39197;BME280;42889;51.112;13.772;2022-10-16T14:19:24;99380.03;;;20.75;71.45
39197;BME280;42889;51.112;13.772;2022-10-16T14:21:52;99382.38;;;20.72;72.17
39197;BME280;42889;51.112;13.772;2022-10-16T14:26:57;99379.09;;;20.57;74.73
39197;BME280;42889;51.112;13.772;2022-10-16T14:29:26;99377.38;;;20.62;76.85
39197;BME280;42889;51.112;13.772;2022-10-16T14:32:01;99372.81;;;20.43;78.01
39197;BME280;42889;51.112;13.772;2022-10-16T14:34:34;99370.75;;;20.38;80.23
39197;BME280;42889;51.112;13.772;2022-10-16T14:39:33;99383.56;;;20.31;81.03
39197;BME280;42889;51.112;13.772;2022-10-16T14:42:00;99382.09;;;20.35;79.41
39197;BME280;42889;51.112;13.772;2022-10-16T14:44:32;99383.84;;;20.23;80.26
39197;BME280;42889;51.112;13.772;2022-10-16T14:47:08;99377.78;;;20.08;83.13
39197;BME280;42889;51.112;13.772;2022-10-16T14:49:35;99380.72;;;19.99;84.27
39197;BME280;42889;51.112;13.772;2022-10-16T14:52:08;99383.28;;;19.94;84.74